sensor_id;sensor_type;location;lat;lon;timestamp;pressure;altitude;pressure_sealevel;temperature;humidity
65897;BME280;52677;50.898;10.854;2023-03-08T00:01:42;96852.34;;;-0.17;100.00
65897;BME280;52677;50.898;10.854;2023-03-08T00:03:43;96846.13;;;-0.17;100.00
65897;BME280;52677;50.898;10.854;2023-03-08T00:05:43;96848.84;;;-0.17;100.00
65897;BME280;52677;50.898;10.854;2023-03-08T00:07:43;96852.34;;;-0.17;100.00
65897;BME280;52677;50.898;10.854;2023-03-08T00:09:44;96847.97;;;-0.21;100.00
65897;BME280;52677;50.898;10.854;2023-03-08T00:11:44;96860.41;;;-0.20;100.00
65897;BME280;52677;50.898;10.854;2023-03-08T00:13:44;96846.38;;;-0.22;100.00
65897;BME280;52677;50.898;10.854;2023-03-08T00:15:45;96846.75;;;-0.24;100.00
65897;BME280;52677;50.898;10.854;2023-03-08T00:17:45;96850.25;;;-0.23;100.00
65897;BME280;52677;50.898;10.854;2023-03-08T00:19:45;96847.41;;;-0.27;100.00
65897;BME280;52677;50.898;10.854;2023-03-08T00:21:46;96852.84;;;-0.27;100.00
65897;BME280;52677;50.898;10.854;2023-03-08T00:23:46;96853.56;;;-0.30;100.00
65897;BME280;52677;50.898;10.854;2023-03-08T00:25:51;96853.56;;;-0.30;100.00
65897;BME280;52677;50.898;10.854;2023-03-08T00:27:52;96854.34;;;-0.30;100.00
65897;BME280;52677;50.898;10.854;2023-03-08T00:29:52;96874.59;;;-0.27;100.00
65897;BME280;52677;50.898;10.854;2023-03-08T00:31:52;96880.38;;;-0.29;100.00
65897;BME280;52677;50.898;10.854;2023-03-08T00:33:53;96889.66;;;-0.30;100.00
65897;BME280;52677;50.898;10.854;2023-03-08T00:36:19;96896.59;;;-0.32;100.00
65897;BME280;52677;50.898;10.854;2023-03-08T00:38:18;96894.66;;;-0.32;100.00
65897;BME280;52677;50.898;10.854;2023-03-08T00:40:19;96899.19;;;-0.36;100.00
65897;BME280;52677;50.898;10.854;2023-03-08T00:42:20;96899.19;;;-0.36;100.00
65897;BME280;52677;50.898;10.854;2023-03-08T00:44:20;96883.69;;;-0.35;100.00
65897;BME280;52677;50.898;10.854;2023-03-08T00:46:20;96889.91;;;-0.35;100.00
65897;BME280;52677;50.898;10.854;2023-03-08T00:48:21;96881.88;;;-0.31;100.00
65897;BME280;52677;50.898;10.854;2023-03-08T00:50:22;96873.72;;;-0.31;100.00
65897;BME280;52677;50.898;10.854;2023-03-08T00:52:22;96872.56;;;-0.30;100.00
65897;BME280;52677;50.898;10.854;2023-03-08T00:54:22;96883.53;;;-0.26;100.00
65897;BME280;52677;50.898;10.854;2023-03-08T00:56:23;96892.81;;;-0.28;100.00
65897;BME280;52677;50.898;10.854;2023-03-08T00:58:25;96893.25;;;-0.25;100.00
65897;BME280;52677;50.898;10.854;2023-03-08T01:00:26;96890.56;;;-0.25;100.00
65897;BME280;52677;50.898;10.854;2023-03-08T01:02:26;96881.16;;;-0.28;100.00
65897;BME280;52677;50.898;10.854;2023-03-08T01:04:26;96891.34;;;-0.25;100.00
65897;BME280;52677;50.898;10.854;2023-03-08T01:06:27;96896.34;;;-0.27;100.00
65897;BME280;52677;50.898;10.854;2023-03-08T01:08:27;96891.69;;;-0.26;100.00
65897;BME280;52677;50.898;10.854;2023-03-08T01:10:27;96884.00;;;-0.24;100.00
65897;BME280;52677;50.898;10.854;2023-03-08T01:12:28;96886.38;;;-0.23;100.00
65897;BME280;52677;50.898;10.854;2023-03-08T01:14:28;96873.44;;;-0.26;100.00
65897;BME280;52677;50.898;10.854;2023-03-08T01:16:31;96884.78;;;-0.24;100.00
65897;BME280;52677;50.898;10.854;2023-03-08T01:18:32;96892.94;;;-0.24;100.00
65897;BME280;52677;50.898;10.854;2023-03-08T01:20:32;96892.59;;;-0.22;100.00
65897;BME280;52677;50.898;10.854;2023-03-08T01:22:33;96882.06;;;-0.24;100.00
65897;BME280;52677;50.898;10.854;2023-03-08T01:24:33;96881.72;;;-0.22;100.00
65897;BME280;52677;50.898;10.854;2023-03-08T01:26:33;96875.84;;;-0.24;100.00
65897;BME280;52677;50.898;10.854;2023-03-08T01:28:34;96885.47;;;-0.27;100.00
65897;BME280;52677;50.898;10.854;2023-03-08T01:30:34;96877.75;;;-0.25;100.00
65897;BME280;52677;50.898;10.854;2023-03-08T01:32:36;96881.28;;;-0.24;100.00
65897;BME280;52677;50.898;10.854;2023-03-08T01:34:37;96882.41;;;-0.25;100.00
65897;BME280;52677;50.898;10.854;2023-03-08T01:36:37;96881.97;;;-0.28;100.00
65897;BME280;52677;50.898;10.854;2023-03-08T01:38:38;96882.75;;;-0.27;100.00
65897;BME280;52677;50.898;10.854;2023-03-08T01:40:38;96870.28;;;-0.28;100.00
65897;BME280;52677;50.898;10.854;2023-03-08T01:42:38;96869.84;;;-0.30;100.00
65897;BME280;52677;50.898;10.854;2023-03-08T01:44:54;96868.38;;;-0.28;100.00
65897;BME280;52677;50.898;10.854;2023-03-08T01:46:55;96866.00;;;-0.29;100.00
65897;BME280;52677;50.898;10.854;2023-03-08T01:51:00;96857.41;;;-0.31;100.00
65897;BME280;52677;50.898;10.854;2023-03-08T01:53:02;96864.31;;;-0.34;100.00
65897;BME280;52677;50.898;10.854;2023-03-08T01:55:05;96881.88;;;-0.31;100.00
65897;BME280;52677;50.898;10.854;2023-03-08T01:59:21;96876.09;;;-0.30;100.00
65897;BME280;52677;50.898;10.854;2023-03-08T02:01:23;96879.59;;;-0.29;100.00
65897;BME280;52677;50.898;10.854;2023-03-08T02:03:23;96871.78;;;-0.31;100.00
65897;BME280;52677;50.898;10.854;2023-03-08T02:05:25;96871.00;;;-0.31;100.00
65897;BME280;52677;50.898;10.854;2023-03-08T02:07:26;96866.59;;;-0.36;100.00
65897;BME280;52677;50.898;10.854;2023-03-08T02:09:26;96864.22;;;-0.37;100.00
65897;BME280;52677;50.898;10.854;2023-03-08T02:11:27;96862.66;;;-0.38;100.00
65897;BME280;52677;50.898;10.854;2023-03-08T02:13:27;96866.50;;;-0.39;100.00
65897;BME280;52677;50.898;10.854;2023-03-08T02:15:28;96857.91;;;-0.41;100.00
65897;BME280;52677;50.898;10.854;2023-03-08T02:17:28;96867.28;;;-0.39;100.00
65897;BME280;52677;50.898;10.854;2023-03-08T02:19:53;96867.72;;;-0.37;100.00
65897;BME280;52677;50.898;10.854;2023-03-08T02:21:54;96864.56;;;-0.39;100.00
65897;BME280;52677;50.898;10.854;2023-03-08T02:24:02;96869.22;;;-0.39;100.00
65897;BME280;52677;50.898;10.854;2023-03-08T02:26:04;96870.69;;;-0.42;100.00
65897;BME280;52677;50.898;10.854;2023-03-08T02:28:05;96871.50;;;-0.41;100.00
65897;BME280;52677;50.898;10.854;2023-03-08T02:30:06;96867.97;;;-0.42;100.00
65897;BME280;52677;50.898;10.854;2023-03-08T02:32:06;96867.09;;;-0.46;100.00
65897;BME280;52677;50.898;10.854;2023-03-08T02:34:07;96876.81;;;-0.45;100.00
65897;BME280;52677;50.898;10.854;2023-03-08T02:36:08;96861.66;;;-0.46;100.00
65897;BME280;52677;50.898;10.854;2023-03-08T02:38:10;96851.91;;;-0.47;100.00
65897;BME280;52677;50.898;10.854;2023-03-08T02:40:11;96865.84;;;-0.48;100.00
65897;BME280;52677;50.898;10.854;2023-03-08T02:42:12;96866.19;;;-0.50;100.00
65897;BME280;52677;50.898;10.854;2023-03-08T02:44:12;96870.81;;;-0.50;100.00
65897;BME280;52677;50.898;10.854;2023-03-08T02:46:13;96871.28;;;-0.48;100.00
65897;BME280;52677;50.898;10.854;2023-03-08T02:48:14;96862.59;;;-0.54;100.00
65897;BME280;52677;50.898;10.854;2023-03-08T02:50:15;96859.88;;;-0.54;100.00
65897;BME280;52677;50.898;10.854;2023-03-08T02:52:15;96849.44;;;-0.52;100.00
65897;BME280;52677;50.898;10.854;2023-03-08T02:54:16;96850.22;;;-0.51;100.00
65897;BME280;52677;50.898;10.854;2023-03-08T02:56:16;96844.34;;;-0.53;100.00
65897;BME280;52677;50.898;10.854;2023-03-08T02:58:16;96837.22;;;-0.58;100.00
65897;BME280;52677;50.898;10.854;2023-03-08T03:00:17;96851.94;;;-0.59;100.00
65897;BME280;52677;50.898;10.854;2023-03-08T03:02:17;96854.66;;;-0.59;100.00
65897;BME280;52677;50.898;10.854;2023-03-08T03:04:18;96845.84;;;-0.56;100.00
65897;BME280;52677;50.898;10.854;2023-03-08T03:06:19;96854.44;;;-0.54;100.00
65897;BME280;52677;50.898;10.854;2023-03-08T03:08:20;96851.72;;;-0.54;100.00
65897;BME280;52677;50.898;10.854;2023-03-08T03:10:20;96852.06;;;-0.55;100.00
65897;BME280;52677;50.898;10.854;2023-03-08T03:12:20;96862.94;;;-0.55;100.00
65897;BME280;52677;50.898;10.854;2023-03-08T03:14:21;96848.66;;;-0.52;100.00
65897;BME280;52677;50.898;10.854;2023-03-08T03:16:21;96852.00;;;-0.43;100.00
65897;BME280;52677;50.898;10.854;2023-03-08T03:18:21;96854.53;;;-0.50;100.00
65897;BME280;52677;50.898;10.854;2023-03-08T03:20:22;96852.59;;;-0.50;100.00
65897;BME280;52677;50.898;10.854;2023-03-08T03:22:23;96846.63;;;-0.55;100.00
65897;BME280;52677;50.898;10.854;2023-03-08T03:24:23;96844.94;;;-0.60;100.00
65897;BME280;52677;50.898;10.854;2023-03-08T03:26:24;96849.94;;;-0.62;100.00
65897;BME280;52677;50.898;10.854;2023-03-08T03:28:24;96855.03;;;-0.61;100.00
65897;BME280;52677;50.898;10.854;2023-03-08T03:30:24;96852.31;;;-0.61;100.00
65897;BME280;52677;50.898;10.854;2023-03-08T03:32:25;96851.88;;;-0.63;100.00
65897;BME280;52677;50.898;10.854;2023-03-08T03:34:25;96843.00;;;-0.60;100.00
65897;BME280;52677;50.898;10.854;2023-03-08T03:36:26;96838.72;;;-0.61;100.00
65897;BME280;52677;50.898;10.854;2023-03-08T03:38:27;96836.00;;;-0.61;100.00
65897;BME280;52677;50.898;10.854;2023-03-08T03:40:27;96837.22;;;-0.58;100.00
65897;BME280;52677;50.898;10.854;2023-03-08T03:42:28;96836.00;;;-0.61;100.00
65897;BME280;52677;50.898;10.854;2023-03-08T03:44:28;96831.72;;;-0.62;100.00
65897;BME280;52677;50.898;10.854;2023-03-08T03:46:30;96831.72;;;-0.62;100.00
65897;BME280;52677;50.898;10.854;2023-03-08T03:48:30;96834.78;;;-0.63;100.00
65897;BME280;52677;50.898;10.854;2023-03-08T03:50:31;96839.31;;;-0.67;100.00
65897;BME280;52677;50.898;10.854;2023-03-08T03:52:31;96845.28;;;-0.62;100.00
65897;BME280;52677;50.898;10.854;2023-03-08T03:54:32;96831.41;;;-0.72;100.00
65897;BME280;52677;50.898;10.854;2023-03-08T03:56:32;96838.56;;;-0.80;100.00
65897;BME280;52677;50.898;10.854;2023-03-08T03:58:33;96839.44;;;-0.76;100.00
65897;BME280;52677;50.898;10.854;2023-03-08T04:00:34;96838.13;;;-0.82;100.00
65897;BME280;52677;50.898;10.854;2023-03-08T04:02:34;96841.63;;;-0.81;100.00
65897;BME280;52677;50.898;10.854;2023-03-08T04:04:34;96851.13;;;-0.88;100.00
65897;BME280;52677;50.898;10.854;2023-03-08T04:06:35;96846.84;;;-0.89;100.00
65897;BME280;52677;50.898;10.854;2023-03-08T04:08:35;96847.97;;;-0.90;100.00
65897;BME280;52677;50.898;10.854;2023-03-08T04:10:41;96851.28;;;-0.96;100.00
65897;BME280;52677;50.898;10.854;2023-03-08T04:12:41;96861.00;;;-0.95;100.00
65897;BME280;52677;50.898;10.854;2023-03-08T04:14:41;96861.00;;;-0.95;100.00
65897;BME280;52677;50.898;10.854;2023-03-08T04:16:42;96864.41;;;-0.98;100.00
65897;BME280;52677;50.898;10.854;2023-03-08T04:18:42;96870.97;;;-0.99;100.00
65897;BME280;52677;50.898;10.854;2023-03-08T04:20:44;96863.13;;;-1.01;100.00
65897;BME280;52677;50.898;10.854;2023-03-08T04:22:44;96875.91;;;-1.01;100.00
65897;BME280;52677;50.898;10.854;2023-03-08T04:24:45;96866.91;;;-1.05;100.00
65897;BME280;52677;50.898;10.854;2023-03-08T04:26:45;96873.47;;;-1.06;100.00
65897;BME280;52677;50.898;10.854;2023-03-08T04:28:45;96867.69;;;-1.05;100.00
65897;BME280;52677;50.898;10.854;2023-03-08T04:30:46;96863.75;;;-1.07;100.00
65897;BME280;52677;50.898;10.854;2023-03-08T04:32:46;96869.59;;;-1.05;100.00
65897;BME280;52677;50.898;10.854;2023-03-08T04:34:46;96863.25;;;-1.09;100.00
65897;BME280;52677;50.898;10.854;2023-03-08T04:36:47;96867.25;;;-1.07;100.00
65897;BME280;52677;50.898;10.854;2023-03-08T04:38:47;96849.34;;;-1.08;100.00
65897;BME280;52677;50.898;10.854;2023-03-08T04:40:49;96845.19;;;-1.05;100.00
65897;BME280;52677;50.898;10.854;2023-03-08T04:43:04;96858.31;;;-1.07;100.00
65897;BME280;52677;50.898;10.854;2023-03-08T04:45:05;96856.38;;;-1.07;100.00
65897;BME280;52677;50.898;10.854;2023-03-08T04:47:05;96857.41;;;-1.11;100.00
65897;BME280;52677;50.898;10.854;2023-03-08T04:49:06;96851.97;;;-1.11;100.00
65897;BME280;52677;50.898;10.854;2023-03-08T04:51:07;96859.31;;;-1.12;100.00
65897;BME280;52677;50.898;10.854;2023-03-08T04:53:08;96842.81;;;-1.07;100.00
65897;BME280;52677;50.898;10.854;2023-03-08T04:55:08;96842.47;;;-1.05;100.00
65897;BME280;52677;50.898;10.854;2023-03-08T04:57:09;96846.75;;;-1.04;100.00
65897;BME280;52677;50.898;10.854;2023-03-08T04:59:09;96837.81;;;-1.05;100.00
65897;BME280;52677;50.898;10.854;2023-03-08T05:01:14;96833.63;;;-1.02;100.00
65897;BME280;52677;50.898;10.854;2023-03-08T05:03:15;96835.91;;;-1.04;100.00
65897;BME280;52677;50.898;10.854;2023-03-08T05:05:15;96840.97;;;-1.03;100.00
65897;BME280;52677;50.898;10.854;2023-03-08T05:07:16;96845.28;;;-1.02;100.00
65897;BME280;52677;50.898;10.854;2023-03-08T05:09:16;96833.97;;;-1.04;100.00
65897;BME280;52677;50.898;10.854;2023-03-08T05:11:19;96833.19;;;-1.04;100.00
65897;BME280;52677;50.898;10.854;2023-03-08T05:13:20;96830.13;;;-1.03;100.00
65897;BME280;52677;50.898;10.854;2023-03-08T05:15:20;96828.19;;;-1.02;100.00
65897;BME280;52677;50.898;10.854;2023-03-08T05:17:22;96830.47;;;-1.04;100.00
65897;BME280;52677;50.898;10.854;2023-03-08T05:19:23;96827.31;;;-1.06;100.00
65897;BME280;52677;50.898;10.854;2023-03-08T05:21:24;96828.44;;;-1.07;100.00
65897;BME280;52677;50.898;10.854;2023-03-08T05:23:25;96836.13;;;-0.97;100.00
65897;BME280;52677;50.898;10.854;2023-03-08T05:25:26;96844.47;;;-1.02;100.00
65897;BME280;52677;50.898;10.854;2023-03-08T05:27:31;96837.69;;;-1.08;100.00
65897;BME280;52677;50.898;10.854;2023-03-08T05:29:32;96830.25;;;-1.11;100.00
65897;BME280;52677;50.898;10.854;2023-03-08T05:31:33;96827.53;;;-1.11;100.00
65897;BME280;52677;50.898;10.854;2023-03-08T05:33:36;96820.19;;;-1.11;100.00
65897;BME280;52677;50.898;10.854;2023-03-08T05:35:36;96825.16;;;-1.13;100.00
65897;BME280;52677;50.898;10.854;2023-03-08T05:37:36;96819.63;;;-1.17;100.00
65897;BME280;52677;50.898;10.854;2023-03-08T05:39:37;96816.38;;;-1.22;100.00
65897;BME280;52677;50.898;10.854;2023-03-08T05:41:37;96817.81;;;-1.25;100.00
65897;BME280;52677;50.898;10.854;2023-03-08T05:43:37;96822.38;;;-1.29;100.00
65897;BME280;52677;50.898;10.854;2023-03-08T05:45:38;96815.34;;;-1.30;100.00
65897;BME280;52677;50.898;10.854;2023-03-08T05:47:38;96816.59;;;-1.27;100.00
65897;BME280;52677;50.898;10.854;2023-03-08T05:49:38;96816.59;;;-1.27;100.00
65897;BME280;52677;50.898;10.854;2023-03-08T05:51:39;96821.31;;;-1.24;100.00
65897;BME280;52677;50.898;10.854;2023-03-08T05:53:39;96818.63;;;-1.24;100.00
65897;BME280;52677;50.898;10.854;2023-03-08T05:55:40;96814.00;;;-1.24;100.00
65897;BME280;52677;50.898;10.854;2023-03-08T05:57:40;96808.56;;;-1.24;100.00
65897;BME280;52677;50.898;10.854;2023-03-08T05:59:40;96816.47;;;-1.19;100.00
65897;BME280;52677;50.898;10.854;2023-03-08T06:01:40;96814.09;;;-1.20;100.00
65897;BME280;52677;50.898;10.854;2023-03-08T06:03:43;96800.09;;;-1.22;100.00
65897;BME280;52677;50.898;10.854;2023-03-08T06:05:44;96809.81;;;-1.21;100.00
65897;BME280;52677;50.898;10.854;2023-03-08T06:07:44;96809.13;;;-1.18;100.00
65897;BME280;52677;50.898;10.854;2023-03-08T06:09:44;96808.31;;;-1.19;100.00
65897;BME280;52677;50.898;10.854;2023-03-08T06:11:45;96815.59;;;-1.23;100.00
65897;BME280;52677;50.898;10.854;2023-03-08T06:13:45;96811.28;;;-1.24;100.00
65897;BME280;52677;50.898;10.854;2023-03-08T06:15:45;96811.28;;;-1.24;100.00
65897;BME280;52677;50.898;10.854;2023-03-08T06:17:46;96805.50;;;-1.22;100.00
65897;BME280;52677;50.898;10.854;2023-03-08T06:19:46;96820.31;;;-1.20;100.00
65897;BME280;52677;50.898;10.854;2023-03-08T06:21:46;96808.66;;;-1.20;100.00
65897;BME280;52677;50.898;10.854;2023-03-08T06:23:47;96816.03;;;-1.21;100.00
65897;BME280;52677;50.898;10.854;2023-03-08T06:25:47;96810.81;;;-1.14;100.00
65897;BME280;52677;50.898;10.854;2023-03-08T06:27:48;96814.31;;;-1.13;100.00
65897;BME280;52677;50.898;10.854;2023-03-08T06:29:48;96802.66;;;-1.14;100.00
65897;BME280;52677;50.898;10.854;2023-03-08T06:31:50;96810.47;;;-1.12;100.00
65897;BME280;52677;50.898;10.854;2023-03-08T06:33:50;96806.38;;;-1.06;100.00
65897;BME280;52677;50.898;10.854;2023-03-08T06:37:55;96796.75;;;-1.03;100.00
65897;BME280;52677;50.898;10.854;2023-03-08T06:39:55;96804.69;;;-0.98;100.00
65897;BME280;52677;50.898;10.854;2023-03-08T06:41:56;96793.81;;;-0.98;100.00
65897;BME280;52677;50.898;10.854;2023-03-08T06:43:56;96786.81;;;-0.99;100.00
65897;BME280;52677;50.898;10.854;2023-03-08T06:45:57;96789.06;;;-1.01;100.00
65897;BME280;52677;50.898;10.854;2023-03-08T06:47:57;96791.78;;;-1.01;100.00
65897;BME280;52677;50.898;10.854;2023-03-08T06:49:57;96794.94;;;-0.99;100.00
65897;BME280;52677;50.898;10.854;2023-03-08T06:51:58;96791.88;;;-0.98;100.00
65897;BME280;52677;50.898;10.854;2023-03-08T06:53:58;96788.03;;;-0.97;100.00
65897;BME280;52677;50.898;10.854;2023-03-08T06:55:58;96790.31;;;-0.99;100.00
65897;BME280;52677;50.898;10.854;2023-03-08T06:58:02;96781.47;;;-0.96;100.00
65897;BME280;52677;50.898;10.854;2023-03-08T07:00:03;96785.41;;;-0.93;100.00
65897;BME280;52677;50.898;10.854;2023-03-08T07:02:03;96790.97;;;-0.90;100.00
65897;BME280;52677;50.898;10.854;2023-03-08T07:04:04;96787.00;;;-0.92;100.00
65897;BME280;52677;50.898;10.854;2023-03-08T07:06:07;96787.53;;;-0.87;100.00
65897;BME280;52677;50.898;10.854;2023-03-08T07:08:07;96776.00;;;-0.83;100.00
65897;BME280;52677;50.898;10.854;2023-03-08T07:10:09;96776.53;;;-0.78;100.00
65897;BME280;52677;50.898;10.854;2023-03-08T07:12:10;96766.59;;;-0.74;100.00
65897;BME280;52677;50.898;10.854;2023-03-08T07:14:10;96771.41;;;-0.67;100.00
65897;BME280;52677;50.898;10.854;2023-03-08T07:16:11;96772.38;;;-0.60;100.00
65897;BME280;52677;50.898;10.854;2023-03-08T07:18:12;96766.72;;;-0.54;100.00
65897;BME280;52677;50.898;10.854;2023-03-08T07:20:15;96764.88;;;-0.50;100.00
65897;BME280;52677;50.898;10.854;2023-03-08T07:22:16;96765.06;;;-0.43;100.00
65897;BME280;52677;50.898;10.854;2023-03-08T07:24:16;96761.31;;;-0.39;100.00
65897;BME280;52677;50.898;10.854;2023-03-08T07:26:16;96763.75;;;-0.34;100.00
65897;BME280;52677;50.898;10.854;2023-03-08T07:28:17;96769.75;;;-0.28;100.00
65897;BME280;52677;50.898;10.854;2023-03-08T07:30:17;96765.19;;;-0.24;100.00
65897;BME280;52677;50.898;10.854;2023-03-08T07:32:17;96763.28;;;-0.23;100.00
65897;BME280;52677;50.898;10.854;2023-03-08T07:34:18;96760.63;;;-0.20;100.00
65897;BME280;52677;50.898;10.854;2023-03-08T07:36:18;96753.63;;;-0.21;100.00
65897;BME280;52677;50.898;10.854;2023-03-08T07:38:18;96760.28;;;-0.18;100.00
65897;BME280;52677;50.898;10.854;2023-03-08T07:40:19;96746.25;;;-0.20;100.00
65897;BME280;52677;50.898;10.854;2023-03-08T07:42:19;96745.81;;;-0.22;100.00
65897;BME280;52677;50.898;10.854;2023-03-08T07:44:20;96740.75;;;-0.24;100.00
65897;BME280;52677;50.898;10.854;2023-03-08T07:46:20;96740.19;;;-0.30;100.00
65897;BME280;52677;50.898;10.854;2023-03-08T07:48:20;96738.97;;;-0.32;100.00
65897;BME280;52677;50.898;10.854;2023-03-08T07:50:21;96748.16;;;-0.37;100.00
65897;BME280;52677;50.898;10.854;2023-03-08T07:52:26;96749.22;;;-0.41;100.00
65897;BME280;52677;50.898;10.854;2023-03-08T07:54:27;96752.38;;;-0.39;100.00
65897;BME280;52677;50.898;10.854;2023-03-08T07:56:28;96751.59;;;-0.40;100.00
65897;BME280;52677;50.898;10.854;2023-03-08T07:58:28;96737.28;;;-0.37;100.00
65897;BME280;52677;50.898;10.854;2023-03-08T08:00:29;96731.97;;;-0.33;100.00
65897;BME280;52677;50.898;10.854;2023-03-08T08:02:29;96737.13;;;-0.28;100.00
65897;BME280;52677;50.898;10.854;2023-03-08T08:04:33;96733.38;;;-0.23;100.00
65897;BME280;52677;50.898;10.854;2023-03-08T08:06:35;96726.78;;;-0.22;100.00
65897;BME280;52677;50.898;10.854;2023-03-08T08:08:35;96730.66;;;-0.23;100.00
65897;BME280;52677;50.898;10.854;2023-03-08T08:10:35;96732.22;;;-0.22;100.00
65897;BME280;52677;50.898;10.854;2023-03-08T08:12:35;96724.44;;;-0.24;100.00
65897;BME280;52677;50.898;10.854;2023-03-08T08:14:36;96722.94;;;-0.21;100.00
65897;BME280;52677;50.898;10.854;2023-03-08T08:16:36;96724.16;;;-0.19;100.00
65897;BME280;52677;50.898;10.854;2023-03-08T08:18:37;96710.13;;;-0.21;100.00
65897;BME280;52677;50.898;10.854;2023-03-08T08:20:37;96721.00;;;-0.21;100.00
65897;BME280;52677;50.898;10.854;2023-03-08T08:22:38;96708.19;;;-0.20;100.00
65897;BME280;52677;50.898;10.854;2023-03-08T08:24:38;96702.69;;;-0.24;100.00
65897;BME280;52677;50.898;10.854;2023-03-08T08:26:38;96712.78;;;-0.24;100.00
65897;BME280;52677;50.898;10.854;2023-03-08T08:28:40;96706.09;;;-0.27;100.00
65897;BME280;52677;50.898;10.854;2023-03-08T08:30:40;96711.09;;;-0.29;100.00
65897;BME280;52677;50.898;10.854;2023-03-08T08:32:43;96697.44;;;-0.33;100.00
65897;BME280;52677;50.898;10.854;2023-03-08T08:34:44;96692.31;;;-0.34;100.00
65897;BME280;52677;50.898;10.854;2023-03-08T08:36:44;96677.63;;;-0.33;100.00
65897;BME280;52677;50.898;10.854;2023-03-08T08:38:45;96681.91;;;-0.32;100.00
65897;BME280;52677;50.898;10.854;2023-03-08T08:40:46;96682.59;;;-0.35;100.00
65897;BME280;52677;50.898;10.854;2023-03-08T08:42:47;96683.13;;;-0.30;100.00
65897;BME280;52677;50.898;10.854;2023-03-08T08:44:47;96679.25;;;-0.29;100.00
65897;BME280;52677;50.898;10.854;2023-03-08T08:46:47;96678.72;;;-0.34;100.00
65897;BME280;52677;50.898;10.854;2023-03-08T08:48:48;96678.28;;;-0.36;100.00
65897;BME280;52677;50.898;10.854;2023-03-08T08:50:48;96683.06;;;-0.33;100.00
65897;BME280;52677;50.898;10.854;2023-03-08T08:52:48;96671.72;;;-0.35;100.00
65897;BME280;52677;50.898;10.854;2023-03-08T08:54:51;96668.31;;;-0.32;100.00
65897;BME280;52677;50.898;10.854;2023-03-08T08:56:52;96659.38;;;-0.33;100.00
65897;BME280;52677;50.898;10.854;2023-03-08T08:58:53;96662.16;;;-0.29;100.00
65897;BME280;52677;50.898;10.854;2023-03-08T09:00:53;96656.31;;;-0.31;100.00
65897;BME280;52677;50.898;10.854;2023-03-08T09:02:54;96655.53;;;-0.32;100.00
65897;BME280;52677;50.898;10.854;2023-03-08T09:04:54;96653.31;;;-0.26;100.00
65897;BME280;52677;50.898;10.854;2023-03-08T09:06:54;96647.78;;;-0.30;100.00
65897;BME280;52677;50.898;10.854;2023-03-08T09:08:57;96657.94;;;-0.26;100.00
65897;BME280;52677;50.898;10.854;2023-03-08T09:11:01;96652.63;;;-0.23;100.00
65897;BME280;52677;50.898;10.854;2023-03-08T09:13:01;96649.63;;;-0.18;100.00
65897;BME280;52677;50.898;10.854;2023-03-08T09:15:03;96638.47;;;-0.13;100.00
65897;BME280;52677;50.898;10.854;2023-03-08T09:17:04;96632.44;;;-0.06;100.00
65897;BME280;52677;50.898;10.854;2023-03-08T09:19:06;96628.22;;;-0.04;100.00
65897;BME280;52677;50.898;10.854;2023-03-08T09:21:07;96627.94;;;0.02;100.00
65897;BME280;52677;50.898;10.854;2023-03-08T09:23:08;96622.94;;;0.04;100.00
65897;BME280;52677;50.898;10.854;2023-03-08T09:25:10;96624.50;;;0.05;100.00
65897;BME280;52677;50.898;10.854;2023-03-08T09:27:10;96623.78;;;0.08;100.00
65897;BME280;52677;50.898;10.854;2023-03-08T09:29:11;96625.03;;;0.10;100.00
65897;BME280;52677;50.898;10.854;2023-03-08T09:31:13;96617.66;;;0.11;100.00
65897;BME280;52677;50.898;10.854;2023-03-08T09:33:17;96620.81;;;0.13;100.00
65897;BME280;52677;50.898;10.854;2023-03-08T09:35:18;96619.31;;;0.15;100.00
65897;BME280;52677;50.898;10.854;2023-03-08T09:37:18;96600.78;;;0.21;100.00
65897;BME280;52677;50.898;10.854;2023-03-08T09:39:19;96598.63;;;0.30;100.00
65897;BME280;52677;50.898;10.854;2023-03-08T09:43:38;96586.50;;;0.43;100.00
65897;BME280;52677;50.898;10.854;2023-03-08T09:45:42;96588.91;;;0.48;100.00
65897;BME280;52677;50.898;10.854;2023-03-08T09:47:50;96582.69;;;0.48;100.00
65897;BME280;52677;50.898;10.854;2023-03-08T09:49:54;96578.31;;;0.43;100.00
65897;BME280;52677;50.898;10.854;2023-03-08T09:52:06;96574.03;;;0.42;100.00
65897;BME280;52677;50.898;10.854;2023-03-08T09:54:14;96564.72;;;0.43;100.00
65897;BME280;52677;50.898;10.854;2023-03-08T09:56:27;96566.72;;;0.46;100.00
65897;BME280;52677;50.898;10.854;2023-03-08T09:58:36;96558.13;;;0.44;100.00
65897;BME280;52677;50.898;10.854;2023-03-08T10:00:40;96567.13;;;0.48;100.00
65897;BME280;52677;50.898;10.854;2023-03-08T10:03:08;96551.25;;;0.50;100.00
65897;BME280;52677;50.898;10.854;2023-03-08T10:08:25;96535.00;;;0.54;100.00
65897;BME280;52677;50.898;10.854;2023-03-08T10:10:35;96529.59;;;0.57;100.00
65897;BME280;52677;50.898;10.854;2023-03-08T10:15:07;96511.84;;;0.64;100.00
65897;BME280;52677;50.898;10.854;2023-03-08T10:17:12;96512.56;;;0.61;100.00
65897;BME280;52677;50.898;10.854;2023-03-08T10:19:30;96503.69;;;0.64;100.00
65897;BME280;52677;50.898;10.854;2023-03-08T10:21:36;96500.13;;;0.60;100.00
65897;BME280;52677;50.898;10.854;2023-03-08T10:23:37;96494.38;;;0.65;100.00
65897;BME280;52677;50.898;10.854;2023-03-08T10:25:40;96489.28;;;0.63;100.00
65897;BME280;52677;50.898;10.854;2023-03-08T10:27:41;96493.94;;;0.63;100.00
65897;BME280;52677;50.898;10.854;2023-03-08T10:29:47;96481.50;;;0.62;100.00
65897;BME280;52677;50.898;10.854;2023-03-08T10:31:48;96480.34;;;0.63;100.00
65897;BME280;52677;50.898;10.854;2023-03-08T10:33:54;96485.13;;;0.69;100.00
65897;BME280;52677;50.898;10.854;2023-03-08T10:36:15;96475.44;;;0.72;100.00
65897;BME280;52677;50.898;10.854;2023-03-08T10:38:16;96477.38;;;0.71;100.00
65897;BME280;52677;50.898;10.854;2023-03-08T10:40:19;96468.06;;;0.72;100.00
65897;BME280;52677;50.898;10.854;2023-03-08T10:42:24;96471.66;;;0.76;100.00